sensor_id;sensor_type;location;lat;lon;timestamp;temperature;humidity
2100;DHT22;1055;48.854;9.302;2023-05-10T00:00:08;14.80;99.90
2100;DHT22;1055;48.854;9.302;2023-05-10T00:02:34;14.60;99.90
2100;DHT22;1055;48.854;9.302;2023-05-10T00:05:00;14.50;99.90
2100;DHT22;1055;48.854;9.302;2023-05-10T00:07:26;14.40;99.90
2100;DHT22;1055;48.854;9.302;2023-05-10T00:09:52;14.30;99.90
2100;DHT22;1055;48.854;9.302;2023-05-10T00:12:17;14.20;99.90
2100;DHT22;1055;48.854;9.302;2023-05-10T00:14:43;14.20;99.90
2100;DHT22;1055;48.854;9.302;2023-05-10T00:17:08;14.10;99.90
2100;DHT22;1055;48.854;9.302;2023-05-10T00:19:34;13.90;99.90
2100;DHT22;1055;48.854;9.302;2023-05-10T00:21:59;13.70;99.90
2100;DHT22;1055;48.854;9.302;2023-05-10T00:24:25;13.80;99.90
2100;DHT22;1055;48.854;9.302;2023-05-10T00:26:51;13.70;99.90
2100;DHT22;1055;48.854;9.302;2023-05-10T00:29:16;13.60;99.90
2100;DHT22;1055;48.854;9.302;2023-05-10T00:31:42;13.60;99.90
2100;DHT22;1055;48.854;9.302;2023-05-10T00:34:07;13.50;99.90
2100;DHT22;1055;48.854;9.302;2023-05-10T00:36:33;13.50;99.90
2100;DHT22;1055;48.854;9.302;2023-05-10T00:38:59;13.50;99.90
2100;DHT22;1055;48.854;9.302;2023-05-10T00:41:24;13.50;99.90
2100;DHT22;1055;48.854;9.302;2023-05-10T00:43:50;13.40;99.90
2100;DHT22;1055;48.854;9.302;2023-05-10T00:46:16;13.40;99.90
2100;DHT22;1055;48.854;9.302;2023-05-10T00:48:43;13.40;99.90
2100;DHT22;1055;48.854;9.302;2023-05-10T00:51:08;13.40;99.90
2100;DHT22;1055;48.854;9.302;2023-05-10T00:53:34;13.30;99.90
2100;DHT22;1055;48.854;9.302;2023-05-10T00:56:01;13.40;99.90
2100;DHT22;1055;48.854;9.302;2023-05-10T00:58:28;13.40;99.90
2100;DHT22;1055;48.854;9.302;2023-05-10T01:00:55;13.30;99.90
2100;DHT22;1055;48.854;9.302;2023-05-10T01:03:21;13.20;99.90
2100;DHT22;1055;48.854;9.302;2023-05-10T01:05:47;13.30;99.90
2100;DHT22;1055;48.854;9.302;2023-05-10T01:08:13;13.20;99.90
2100;DHT22;1055;48.854;9.302;2023-05-10T01:10:38;13.10;99.90
2100;DHT22;1055;48.854;9.302;2023-05-10T01:13:04;13.20;99.90
2100;DHT22;1055;48.854;9.302;2023-05-10T01:15:31;13.20;99.90
2100;DHT22;1055;48.854;9.302;2023-05-10T01:17:57;13.20;99.90
2100;DHT22;1055;48.854;9.302;2023-05-10T01:20:23;13.10;99.90
2100;DHT22;1055;48.854;9.302;2023-05-10T01:23:10;13.10;99.90
2100;DHT22;1055;48.854;9.302;2023-05-10T01:26:16;13.00;99.90
2100;DHT22;1055;48.854;9.302;2023-05-10T01:34:25;13.00;99.90
2100;DHT22;1055;48.854;9.302;2023-05-10T01:37:01;13.00;99.90
2100;DHT22;1055;48.854;9.302;2023-05-10T01:39:41;13.10;99.90
2100;DHT22;1055;48.854;9.302;2023-05-10T01:42:11;13.20;99.90
2100;DHT22;1055;48.854;9.302;2023-05-10T01:47:15;13.00;99.90
2100;DHT22;1055;48.854;9.302;2023-05-10T01:49:47;13.10;99.90
2100;DHT22;1055;48.854;9.302;2023-05-10T01:52:16;13.10;99.90
2100;DHT22;1055;48.854;9.302;2023-05-10T01:54:56;13.20;99.90
2100;DHT22;1055;48.854;9.302;2023-05-10T01:57:26;13.20;99.90
2100;DHT22;1055;48.854;9.302;2023-05-10T01:59:53;13.20;99.90
2100;DHT22;1055;48.854;9.302;2023-05-10T02:02:21;13.30;99.90
2100;DHT22;1055;48.854;9.302;2023-05-10T02:04:49;13.10;99.90
2100;DHT22;1055;48.854;9.302;2023-05-10T02:07:16;13.10;99.90
2100;DHT22;1055;48.854;9.302;2023-05-10T02:09:44;13.00;99.90
2100;DHT22;1055;48.854;9.302;2023-05-10T02:12:13;13.10;99.90
2100;DHT22;1055;48.854;9.302;2023-05-10T02:14:40;13.00;99.90
2100;DHT22;1055;48.854;9.302;2023-05-10T02:17:07;13.00;99.90
2100;DHT22;1055;48.854;9.302;2023-05-10T02:19:36;13.10;99.90
2100;DHT22;1055;48.854;9.302;2023-05-10T02:22:03;13.10;99.90
2100;DHT22;1055;48.854;9.302;2023-05-10T02:24:29;13.20;99.90
2100;DHT22;1055;48.854;9.302;2023-05-10T02:26:56;13.00;99.90
2100;DHT22;1055;48.854;9.302;2023-05-10T02:29:24;13.00;99.90
2100;DHT22;1055;48.854;9.302;2023-05-10T02:31:52;13.10;99.90
2100;DHT22;1055;48.854;9.302;2023-05-10T02:34:20;13.00;99.90
2100;DHT22;1055;48.854;9.302;2023-05-10T02:36:47;13.10;99.90
2100;DHT22;1055;48.854;9.302;2023-05-10T02:39:14;13.20;99.90
2100;DHT22;1055;48.854;9.302;2023-05-10T02:41:41;13.30;99.90
2100;DHT22;1055;48.854;9.302;2023-05-10T02:44:08;13.20;99.90
2100;DHT22;1055;48.854;9.302;2023-05-10T02:46:35;13.30;99.90
2100;DHT22;1055;48.854;9.302;2023-05-10T02:49:03;13.30;99.90
2100;DHT22;1055;48.854;9.302;2023-05-10T02:51:31;13.20;99.90
2100;DHT22;1055;48.854;9.302;2023-05-10T02:54:04;13.20;99.90
2100;DHT22;1055;48.854;9.302;2023-05-10T02:56:35;13.20;99.90
2100;DHT22;1055;48.854;9.302;2023-05-10T02:59:01;13.20;99.90
2100;DHT22;1055;48.854;9.302;2023-05-10T03:01:27;13.30;99.90
2100;DHT22;1055;48.854;9.302;2023-05-10T03:03:52;13.30;99.90
2100;DHT22;1055;48.854;9.302;2023-05-10T03:06:18;13.40;99.90
2100;DHT22;1055;48.854;9.302;2023-05-10T03:08:44;13.40;99.90
2100;DHT22;1055;48.854;9.302;2023-05-10T03:19:58;13.70;99.90
2100;DHT22;1055;48.854;9.302;2023-05-10T03:22:29;13.60;99.90
2100;DHT22;1055;48.854;9.302;2023-05-10T03:24:56;13.60;99.90
2100;DHT22;1055;48.854;9.302;2023-05-10T03:27:25;13.70;99.90
2100;DHT22;1055;48.854;9.302;2023-05-10T03:29:52;13.60;99.90
2100;DHT22;1055;48.854;9.302;2023-05-10T03:32:18;13.60;99.90
2100;DHT22;1055;48.854;9.302;2023-05-10T03:34:44;13.70;99.90
2100;DHT22;1055;48.854;9.302;2023-05-10T03:37:09;13.60;99.90
2100;DHT22;1055;48.854;9.302;2023-05-10T03:39:35;13.70;99.90
2100;DHT22;1055;48.854;9.302;2023-05-10T03:42:01;13.60;99.90
2100;DHT22;1055;48.854;9.302;2023-05-10T03:44:26;13.60;99.90
2100;DHT22;1055;48.854;9.302;2023-05-10T03:46:52;13.70;99.90
2100;DHT22;1055;48.854;9.302;2023-05-10T03:49:18;13.60;99.90
2100;DHT22;1055;48.854;9.302;2023-05-10T03:51:43;13.70;99.90
2100;DHT22;1055;48.854;9.302;2023-05-10T03:54:09;13.80;99.90
2100;DHT22;1055;48.854;9.302;2023-05-10T03:56:34;14.00;99.90
2100;DHT22;1055;48.854;9.302;2023-05-10T03:59:00;14.00;99.90
2100;DHT22;1055;48.854;9.302;2023-05-10T04:01:26;14.10;99.90
2100;DHT22;1055;48.854;9.302;2023-05-10T04:03:51;14.10;99.90
2100;DHT22;1055;48.854;9.302;2023-05-10T04:06:17;14.00;99.90
2100;DHT22;1055;48.854;9.302;2023-05-10T04:08:43;14.00;99.90
2100;DHT22;1055;48.854;9.302;2023-05-10T04:11:11;13.90;99.90
2100;DHT22;1055;48.854;9.302;2023-05-10T04:13:38;14.00;99.90
2100;DHT22;1055;48.854;9.302;2023-05-10T04:16:04;13.90;99.90
2100;DHT22;1055;48.854;9.302;2023-05-10T04:18:30;14.10;99.90
2100;DHT22;1055;48.854;9.302;2023-05-10T04:20:56;14.00;99.90
2100;DHT22;1055;48.854;9.302;2023-05-10T04:23:22;13.90;99.90
2100;DHT22;1055;48.854;9.302;2023-05-10T04:25:47;13.90;99.90
2100;DHT22;1055;48.854;9.302;2023-05-10T04:28:13;14.00;99.90
2100;DHT22;1055;48.854;9.302;2023-05-10T04:30:39;14.00;99.90
2100;DHT22;1055;48.854;9.302;2023-05-10T04:33:05;13.90;99.90
2100;DHT22;1055;48.854;9.302;2023-05-10T04:35:31;13.90;99.90
2100;DHT22;1055;48.854;9.302;2023-05-10T04:37:56;13.90;99.90
2100;DHT22;1055;48.854;9.302;2023-05-10T04:40:22;14.00;99.90
2100;DHT22;1055;48.854;9.302;2023-05-10T04:42:48;14.00;99.90
2100;DHT22;1055;48.854;9.302;2023-05-10T04:45:13;14.10;99.90
2100;DHT22;1055;48.854;9.302;2023-05-10T04:47:42;14.00;99.90
2100;DHT22;1055;48.854;9.302;2023-05-10T04:50:08;13.90;99.90
2100;DHT22;1055;48.854;9.302;2023-05-10T04:52:33;14.00;99.90
2100;DHT22;1055;48.854;9.302;2023-05-10T04:54:59;13.90;99.90
2100;DHT22;1055;48.854;9.302;2023-05-10T04:57:24;13.80;99.90
2100;DHT22;1055;48.854;9.302;2023-05-10T04:59:50;13.90;99.90
2100;DHT22;1055;48.854;9.302;2023-05-10T05:02:16;13.80;99.90
2100;DHT22;1055;48.854;9.302;2023-05-10T05:04:42;13.70;99.90
2100;DHT22;1055;48.854;9.302;2023-05-10T05:07:08;13.70;99.90
2100;DHT22;1055;48.854;9.302;2023-05-10T05:09:33;13.70;99.90
2100;DHT22;1055;48.854;9.302;2023-05-10T05:11:59;13.80;99.90
2100;DHT22;1055;48.854;9.302;2023-05-10T05:14:25;13.80;99.90
2100;DHT22;1055;48.854;9.302;2023-05-10T05:16:51;13.90;99.90
2100;DHT22;1055;48.854;9.302;2023-05-10T05:19:17;13.80;99.90
2100;DHT22;1055;48.854;9.302;2023-05-10T05:21:43;13.80;99.90
2100;DHT22;1055;48.854;9.302;2023-05-10T05:24:09;13.90;99.90
2100;DHT22;1055;48.854;9.302;2023-05-10T05:26:35;13.80;99.90
2100;DHT22;1055;48.854;9.302;2023-05-10T05:29:02;13.90;99.90
2100;DHT22;1055;48.854;9.302;2023-05-10T05:31:28;13.90;99.90
2100;DHT22;1055;48.854;9.302;2023-05-10T05:33:54;14.10;99.90
2100;DHT22;1055;48.854;9.302;2023-05-10T05:36:20;14.20;99.90
2100;DHT22;1055;48.854;9.302;2023-05-10T05:38:46;14.30;99.90
2100;DHT22;1055;48.854;9.302;2023-05-10T05:41:12;14.50;99.90
2100;DHT22;1055;48.854;9.302;2023-05-10T05:43:38;14.50;99.90
2100;DHT22;1055;48.854;9.302;2023-05-10T05:46:03;14.30;99.90
2100;DHT22;1055;48.854;9.302;2023-05-10T05:48:32;14.30;99.90
2100;DHT22;1055;48.854;9.302;2023-05-10T05:50:58;14.30;99.90
2100;DHT22;1055;48.854;9.302;2023-05-10T05:53:23;14.20;99.90
2100;DHT22;1055;48.854;9.302;2023-05-10T05:55:53;14.60;99.90
2100;DHT22;1055;48.854;9.302;2023-05-10T05:58:20;14.10;99.90
2100;DHT22;1055;48.854;9.302;2023-05-10T06:00:46;14.10;99.90
2100;DHT22;1055;48.854;9.302;2023-05-10T06:03:11;14.10;99.90
2100;DHT22;1055;48.854;9.302;2023-05-10T06:05:37;14.20;99.90
2100;DHT22;1055;48.854;9.302;2023-05-10T06:08:03;14.10;99.90
2100;DHT22;1055;48.854;9.302;2023-05-10T06:10:29;14.20;99.90
2100;DHT22;1055;48.854;9.302;2023-05-10T06:12:55;14.30;99.90
2100;DHT22;1055;48.854;9.302;2023-05-10T06:15:21;14.30;99.90
2100;DHT22;1055;48.854;9.302;2023-05-10T06:17:47;14.30;99.90
2100;DHT22;1055;48.854;9.302;2023-05-10T06:20:15;14.30;99.90
2100;DHT22;1055;48.854;9.302;2023-05-10T06:22:41;14.20;99.90
2100;DHT22;1055;48.854;9.302;2023-05-10T06:25:07;14.20;99.90
2100;DHT22;1055;48.854;9.302;2023-05-10T06:27:33;14.20;99.90
2100;DHT22;1055;48.854;9.302;2023-05-10T06:29:59;14.40;99.90
2100;DHT22;1055;48.854;9.302;2023-05-10T06:32:25;14.60;99.90
2100;DHT22;1055;48.854;9.302;2023-05-10T06:34:51;14.40;99.90
2100;DHT22;1055;48.854;9.302;2023-05-10T06:37:16;14.50;99.90
2100;DHT22;1055;48.854;9.302;2023-05-10T06:39:42;14.60;99.90
2100;DHT22;1055;48.854;9.302;2023-05-10T06:42:08;14.50;99.90
2100;DHT22;1055;48.854;9.302;2023-05-10T06:44:33;14.60;99.90
2100;DHT22;1055;48.854;9.302;2023-05-10T06:46:59;14.60;99.90
2100;DHT22;1055;48.854;9.302;2023-05-10T06:49:25;14.50;99.90
2100;DHT22;1055;48.854;9.302;2023-05-10T06:51:50;14.50;99.90
2100;DHT22;1055;48.854;9.302;2023-05-10T06:54:16;14.60;99.90
2100;DHT22;1055;48.854;9.302;2023-05-10T06:56:42;14.60;99.90
2100;DHT22;1055;48.854;9.302;2023-05-10T06:59:07;14.70;99.90
2100;DHT22;1055;48.854;9.302;2023-05-10T07:01:33;14.70;99.90
2100;DHT22;1055;48.854;9.302;2023-05-10T07:03:58;14.80;99.90
2100;DHT22;1055;48.854;9.302;2023-05-10T07:06:24;14.80;99.90
2100;DHT22;1055;48.854;9.302;2023-05-10T07:08:50;14.70;99.90
2100;DHT22;1055;48.854;9.302;2023-05-10T07:11:15;14.80;99.90
2100;DHT22;1055;48.854;9.302;2023-05-10T07:13:41;14.80;99.90
2100;DHT22;1055;48.854;9.302;2023-05-10T07:16:09;14.80;99.90
2100;DHT22;1055;48.854;9.302;2023-05-10T07:18:35;14.90;99.90
2100;DHT22;1055;48.854;9.302;2023-05-10T07:21:01;14.90;99.90
2100;DHT22;1055;48.854;9.302;2023-05-10T07:23:27;15.00;99.90
2100;DHT22;1055;48.854;9.302;2023-05-10T07:25:53;15.00;99.90
2100;DHT22;1055;48.854;9.302;2023-05-10T07:28:19;14.90;99.90
2100;DHT22;1055;48.854;9.302;2023-05-10T07:30:45;14.90;99.90
2100;DHT22;1055;48.854;9.302;2023-05-10T07:33:13;14.90;99.90
2100;DHT22;1055;48.854;9.302;2023-05-10T07:35:38;14.90;99.90
2100;DHT22;1055;48.854;9.302;2023-05-10T07:38:04;14.90;99.90
2100;DHT22;1055;48.854;9.302;2023-05-10T07:40:30;15.00;99.90
2100;DHT22;1055;48.854;9.302;2023-05-10T07:42:56;15.00;99.90
2100;DHT22;1055;48.854;9.302;2023-05-10T07:45:22;15.20;99.90
2100;DHT22;1055;48.854;9.302;2023-05-10T07:47:48;15.30;99.90
2100;DHT22;1055;48.854;9.302;2023-05-10T07:50:24;15.20;99.90
2100;DHT22;1055;48.854;9.302;2023-05-10T07:52:50;15.00;99.90
2100;DHT22;1055;48.854;9.302;2023-05-10T07:55:16;14.90;99.90
2100;DHT22;1055;48.854;9.302;2023-05-10T07:57:43;14.80;99.90
2100;DHT22;1055;48.854;9.302;2023-05-10T08:00:11;14.60;99.90
2100;DHT22;1055;48.854;9.302;2023-05-10T08:02:37;14.80;99.90
2100;DHT22;1055;48.854;9.302;2023-05-10T08:05:04;14.80;99.90
2100;DHT22;1055;48.854;9.302;2023-05-10T08:07:30;15.00;99.90
2100;DHT22;1055;48.854;9.302;2023-05-10T08:09:56;15.00;99.90
2100;DHT22;1055;48.854;9.302;2023-05-10T08:12:22;15.10;99.90
2100;DHT22;1055;48.854;9.302;2023-05-10T08:14:47;15.20;99.90
2100;DHT22;1055;48.854;9.302;2023-05-10T08:17:13;15.10;99.90
2100;DHT22;1055;48.854;9.302;2023-05-10T08:19:38;15.20;99.90
2100;DHT22;1055;48.854;9.302;2023-05-10T08:22:04;15.30;99.90
2100;DHT22;1055;48.854;9.302;2023-05-10T08:24:30;15.20;99.90
2100;DHT22;1055;48.854;9.302;2023-05-10T08:26:56;15.00;99.90
2100;DHT22;1055;48.854;9.302;2023-05-10T08:29:22;15.10;99.90
2100;DHT22;1055;48.854;9.302;2023-05-10T08:31:48;15.00;99.90
2100;DHT22;1055;48.854;9.302;2023-05-10T08:34:14;15.10;99.90
2100;DHT22;1055;48.854;9.302;2023-05-10T08:36:39;15.20;99.90
2100;DHT22;1055;48.854;9.302;2023-05-10T08:39:05;15.10;99.90
2100;DHT22;1055;48.854;9.302;2023-05-10T08:41:33;15.00;99.90
2100;DHT22;1055;48.854;9.302;2023-05-10T08:43:59;15.10;99.90
2100;DHT22;1055;48.854;9.302;2023-05-10T08:46:30;15.00;99.90
2100;DHT22;1055;48.854;9.302;2023-05-10T08:48:57;15.00;99.90
2100;DHT22;1055;48.854;9.302;2023-05-10T08:51:27;15.00;99.90
2100;DHT22;1055;48.854;9.302;2023-05-10T08:53:56;15.10;99.90
2100;DHT22;1055;48.854;9.302;2023-05-10T08:56:22;15.30;99.90
2100;DHT22;1055;48.854;9.302;2023-05-10T08:58:50;15.40;99.90
2100;DHT22;1055;48.854;9.302;2023-05-10T09:01:18;15.40;99.90
2100;DHT22;1055;48.854;9.302;2023-05-10T09:03:45;15.50;99.90
2100;DHT22;1055;48.854;9.302;2023-05-10T09:06:12;15.30;99.90
2100;DHT22;1055;48.854;9.302;2023-05-10T09:08:39;15.30;99.90
2100;DHT22;1055;48.854;9.302;2023-05-10T09:11:07;15.40;99.90
2100;DHT22;1055;48.854;9.302;2023-05-10T09:13:35;15.40;99.90
2100;DHT22;1055;48.854;9.302;2023-05-10T09:16:01;15.60;99.90
2100;DHT22;1055;48.854;9.302;2023-05-10T09:18:27;15.70;99.90
2100;DHT22;1055;48.854;9.302;2023-05-10T09:20:54;15.80;99.90
2100;DHT22;1055;48.854;9.302;2023-05-10T09:23:20;15.80;99.90
2100;DHT22;1055;48.854;9.302;2023-05-10T09:25:45;15.90;99.90
2100;DHT22;1055;48.854;9.302;2023-05-10T09:28:11;15.70;99.90
2100;DHT22;1055;48.854;9.302;2023-05-10T09:30:37;15.80;99.90
2100;DHT22;1055;48.854;9.302;2023-05-10T09:33:03;15.80;99.90
2100;DHT22;1055;48.854;9.302;2023-05-10T09:35:31;15.90;99.90
2100;DHT22;1055;48.854;9.302;2023-05-10T09:38:01;15.80;99.90
2100;DHT22;1055;48.854;9.302;2023-05-10T09:40:28;15.90;99.90
2100;DHT22;1055;48.854;9.302;2023-05-10T09:43:08;16.00;99.90
2100;DHT22;1055;48.854;9.302;2023-05-10T09:45:35;15.90;99.90
2100;DHT22;1055;48.854;9.302;2023-05-10T09:48:01;15.80;99.90
2100;DHT22;1055;48.854;9.302;2023-05-10T09:50:28;16.00;99.90
2100;DHT22;1055;48.854;9.302;2023-05-10T09:53:02;16.00;99.90
2100;DHT22;1055;48.854;9.302;2023-05-10T09:55:38;16.10;99.90
2100;DHT22;1055;48.854;9.302;2023-05-10T09:58:04;16.20;99.90
2100;DHT22;1055;48.854;9.302;2023-05-10T10:00:39;16.50;99.90
2100;DHT22;1055;48.854;9.302;2023-05-10T10:03:06;16.30;99.90
2100;DHT22;1055;48.854;9.302;2023-05-10T10:05:33;16.20;99.90
2100;DHT22;1055;48.854;9.302;2023-05-10T10:08:00;16.30;99.90
2100;DHT22;1055;48.854;9.302;2023-05-10T10:10:28;16.50;99.90
2100;DHT22;1055;48.854;9.302;2023-05-10T10:12:54;16.00;99.90
2100;DHT22;1055;48.854;9.302;2023-05-10T10:15:23;15.90;99.90
2100;DHT22;1055;48.854;9.302;2023-05-10T10:17:50;15.90;99.90
2100;DHT22;1055;48.854;9.302;2023-05-10T10:20:17;15.80;99.90
2100;DHT22;1055;48.854;9.302;2023-05-10T10:22:43;15.80;99.90
2100;DHT22;1055;48.854;9.302;2023-05-10T10:25:14;15.70;99.90
2100;DHT22;1055;48.854;9.302;2023-05-10T10:30:40;15.50;99.90
2100;DHT22;1055;48.854;9.302;2023-05-10T10:35:59;15.60;99.90
2100;DHT22;1055;48.854;9.302;2023-05-10T10:38:25;15.70;99.90
2100;DHT22;1055;48.854;9.302;2023-05-10T10:41:28;15.90;99.90
2100;DHT22;1055;48.854;9.302;2023-05-10T10:49:42;16.10;99.90
2100;DHT22;1055;48.854;9.302;2023-05-10T10:54:57;16.20;99.90
2100;DHT22;1055;48.854;9.302;2023-05-10T10:57:23;16.00;99.90
2100;DHT22;1055;48.854;9.302;2023-05-10T10:59:48;15.80;99.90
2100;DHT22;1055;48.854;9.302;2023-05-10T11:02:43;15.90;99.90
2100;DHT22;1055;48.854;9.302;2023-05-10T11:05:39;16.00;99.90
2100;DHT22;1055;48.854;9.302;2023-05-10T11:13:30;15.90;99.90
2100;DHT22;1055;48.854;9.302;2023-05-10T11:15:56;16.00;99.90
2100;DHT22;1055;48.854;9.302;2023-05-10T11:18:27;16.10;99.90
2100;DHT22;1055;48.854;9.302;2023-05-10T11:20:59;16.10;99.90
2100;DHT22;1055;48.854;9.302;2023-05-10T11:24:03;16.00;99.90
2100;DHT22;1055;48.854;9.302;2023-05-10T11:26:35;16.10;99.90
2100;DHT22;1055;48.854;9.302;2023-05-10T11:29:01;16.20;99.90
2100;DHT22;1055;48.854;9.302;2023-05-10T11:31:28;16.10;99.90
2100;DHT22;1055;48.854;9.302;2023-05-10T11:33:56;16.00;99.90
2100;DHT22;1055;48.854;9.302;2023-05-10T11:36:24;15.70;99.90
2100;DHT22;1055;48.854;9.302;2023-05-10T11:38:51;15.70;99.90
2100;DHT22;1055;48.854;9.302;2023-05-10T11:41:19;15.80;99.90
2100;DHT22;1055;48.854;9.302;2023-05-10T11:43:48;15.90;99.90
2100;DHT22;1055;48.854;9.302;2023-05-10T11:46:15;15.90;99.90
2100;DHT22;1055;48.854;9.302;2023-05-10T11:48:42;15.90;99.90
2100;DHT22;1055;48.854;9.302;2023-05-10T11:51:09;16.10;99.90
2100;DHT22;1055;48.854;9.302;2023-05-10T11:53:35;16.30;99.90
2100;DHT22;1055;48.854;9.302;2023-05-10T11:56:06;16.20;99.90
2100;DHT22;1055;48.854;9.302;2023-05-10T11:58:32;16.30;99.90
2100;DHT22;1055;48.854;9.302;2023-05-10T12:00:59;16.40;99.90
2100;DHT22;1055;48.854;9.302;2023-05-10T12:03:26;16.50;99.90
2100;DHT22;1055;48.854;9.302;2023-05-10T12:05:52;16.10;99.90
2100;DHT22;1055;48.854;9.302;2023-05-10T12:08:26;16.10;99.90
2100;DHT22;1055;48.854;9.302;2023-05-10T12:11:07;16.20;99.90
2100;DHT22;1055;48.854;9.302;2023-05-10T12:13:38;16.20;99.90
2100;DHT22;1055;48.854;9.302;2023-05-10T12:16:25;16.20;99.90
2100;DHT22;1055;48.854;9.302;2023-05-10T12:18:52;16.20;99.90
2100;DHT22;1055;48.854;9.302;2023-05-10T12:21:20;16.20;99.90
2100;DHT22;1055;48.854;9.302;2023-05-10T12:23:48;16.20;99.90
2100;DHT22;1055;48.854;9.302;2023-05-10T12:26:14;16.50;99.90
2100;DHT22;1055;48.854;9.302;2023-05-10T12:28:39;16.10;99.90
2100;DHT22;1055;48.854;9.302;2023-05-10T12:31:06;16.20;99.90
2100;DHT22;1055;48.854;9.302;2023-05-10T12:33:44;16.00;99.90
2100;DHT22;1055;48.854;9.302;2023-05-10T12:36:12;15.80;99.90
2100;DHT22;1055;48.854;9.302;2023-05-10T12:38:39;15.70;99.90
2100;DHT22;1055;48.854;9.302;2023-05-10T12:41:09;15.80;99.90
2100;DHT22;1055;48.854;9.302;2023-05-10T12:43:36;15.60;99.90
2100;DHT22;1055;48.854;9.302;2023-05-10T12:46:12;15.60;99.90
2100;DHT22;1055;48.854;9.302;2023-05-10T12:48:39;15.70;99.90
2100;DHT22;1055;48.854;9.302;2023-05-10T12:51:05;15.80;99.90
2100;DHT22;1055;48.854;9.302;2023-05-10T12:53:35;15.80;99.90
2100;DHT22;1055;48.854;9.302;2023-05-10T12:56:00;15.90;99.90
2100;DHT22;1055;48.854;9.302;2023-05-10T12:58:26;16.10;99.90
2100;DHT22;1055;48.854;9.302;2023-05-10T13:00:52;16.00;99.90
2100;DHT22;1055;48.854;9.302;2023-05-10T13:03:18;16.00;99.90
2100;DHT22;1055;48.854;9.302;2023-05-10T13:05:44;16.30;99.90
2100;DHT22;1055;48.854;9.302;2023-05-10T13:08:10;16.40;99.90
2100;DHT22;1055;48.854;9.302;2023-05-10T13:10:35;16.40;99.90
2100;DHT22;1055;48.854;9.302;2023-05-10T13:13:01;16.30;99.90
2100;DHT22;1055;48.854;9.302;2023-05-10T13:15:27;16.40;99.90
2100;DHT22;1055;48.854;9.302;2023-05-10T13:17:53;16.40;99.90
2100;DHT22;1055;48.854;9.302;2023-05-10T13:20:19;16.50;99.90
2100;DHT22;1055;48.854;9.302;2023-05-10T13:22:45;16.70;99.90
2100;DHT22;1055;48.854;9.302;2023-05-10T13:25:11;16.60;99.90
2100;DHT22;1055;48.854;9.302;2023-05-10T13:27:40;16.60;99.90
2100;DHT22;1055;48.854;9.302;2023-05-10T13:30:07;16.50;99.90
2100;DHT22;1055;48.854;9.302;2023-05-10T13:32:33;16.50;99.90
2100;DHT22;1055;48.854;9.302;2023-05-10T13:34:59;16.60;99.90
2100;DHT22;1055;48.854;9.302;2023-05-10T13:37:25;16.60;99.90
2100;DHT22;1055;48.854;9.302;2023-05-10T13:39:50;16.50;99.90
2100;DHT22;1055;48.854;9.302;2023-05-10T13:42:17;16.60;99.90
2100;DHT22;1055;48.854;9.302;2023-05-10T13:44:43;16.50;99.90
2100;DHT22;1055;48.854;9.302;2023-05-10T13:47:08;16.80;99.90
2100;DHT22;1055;48.854;9.302;2023-05-10T13:49:34;16.50;99.90
2100;DHT22;1055;48.854;9.302;2023-05-10T13:52:00;16.50;99.90
2100;DHT22;1055;48.854;9.302;2023-05-10T13:54:35;16.60;99.90
2100;DHT22;1055;48.854;9.302;2023-05-10T13:57:01;16.40;99.90
2100;DHT22;1055;48.854;9.302;2023-05-10T13:59:28;16.60;99.90
2100;DHT22;1055;48.854;9.302;2023-05-10T14:01:54;16.50;99.90
2100;DHT22;1055;48.854;9.302;2023-05-10T14:04:20;16.60;99.90
2100;DHT22;1055;48.854;9.302;2023-05-10T14:06:46;16.50;99.90
2100;DHT22;1055;48.854;9.302;2023-05-10T14:09:13;16.70;99.90
2100;DHT22;1055;48.854;9.302;2023-05-10T14:11:45;16.70;99.90
2100;DHT22;1055;48.854;9.302;2023-05-10T14:14:13;16.90;99.90
2100;DHT22;1055;48.854;9.302;2023-05-10T14:16:47;17.00;99.90
2100;DHT22;1055;48.854;9.302;2023-05-10T14:19:14;16.80;99.90
2100;DHT22;1055;48.854;9.302;2023-05-10T14:21:41;16.80;99.90
2100;DHT22;1055;48.854;9.302;2023-05-10T14:24:07;16.70;99.90
2100;DHT22;1055;48.854;9.302;2023-05-10T14:26:32;16.60;99.90
2100;DHT22;1055;48.854;9.302;2023-05-10T14:28:59;16.70;99.90
2100;DHT22;1055;48.854;9.302;2023-05-10T14:31:25;16.60;99.90
2100;DHT22;1055;48.854;9.302;2023-05-10T14:33:51;16.50;99.90
2100;DHT22;1055;48.854;9.302;2023-05-10T14:36:17;16.80;99.90
2100;DHT22;1055;48.854;9.302;2023-05-10T14:38:43;17.00;99.90
2100;DHT22;1055;48.854;9.302;2023-05-10T14:41:08;17.00;99.90
2100;DHT22;1055;48.854;9.302;2023-05-10T14:43:34;17.00;99.90
2100;DHT22;1055;48.854;9.302;2023-05-10T14:46:00;16.80;99.90
2100;DHT22;1055;48.854;9.302;2023-05-10T14:48:26;16.90;99.90
2100;DHT22;1055;48.854;9.302;2023-05-10T14:50:51;17.00;99.90
2100;DHT22;1055;48.854;9.302;2023-05-10T14:53:17;17.10;99.90
2100;DHT22;1055;48.854;9.302;2023-05-10T14:55:43;17.10;99.90
2100;DHT22;1055;48.854;9.302;2023-05-10T14:58:09;17.10;99.90
2100;DHT22;1055;48.854;9.302;2023-05-10T15:00:35;17.00;99.90
2100;DHT22;1055;48.854;9.302;2023-05-10T15:03:01;16.90;99.90
2100;DHT22;1055;48.854;9.302;2023-05-10T15:05:26;16.80;99.90
2100;DHT22;1055;48.854;9.302;2023-05-10T15:07:52;16.80;99.90
2100;DHT22;1055;48.854;9.302;2023-05-10T15:10:18;16.80;99.90
2100;DHT22;1055;48.854;9.302;2023-05-10T15:12:43;16.70;99.90
2100;DHT22;1055;48.854;9.302;2023-05-10T15:15:09;16.80;99.90
2100;DHT22;1055;48.854;9.302;2023-05-10T15:17:35;17.00;99.90
2100;DHT22;1055;48.854;9.302;2023-05-10T15:20:01;17.00;99.90
2100;DHT22;1055;48.854;9.302;2023-05-10T15:22:29;17.00;99.90
2100;DHT22;1055;48.854;9.302;2023-05-10T15:24:55;16.90;99.90
2100;DHT22;1055;48.854;9.302;2023-05-10T15:27:21;16.90;99.90
2100;DHT22;1055;48.854;9.302;2023-05-10T15:29:46;16.90;99.90
2100;DHT22;1055;48.854;9.302;2023-05-10T15:32:12;16.70;99.90
2100;DHT22;1055;48.854;9.302;2023-05-10T15:34:37;16.90;99.90
2100;DHT22;1055;48.854;9.302;2023-05-10T15:37:03;16.90;99.90
2100;DHT22;1055;48.854;9.302;2023-05-10T15:39:29;17.00;99.90
2100;DHT22;1055;48.854;9.302;2023-05-10T15:41:54;17.20;99.90
2100;DHT22;1055;48.854;9.302;2023-05-10T15:44:20;16.90;99.90
2100;DHT22;1055;48.854;9.302;2023-05-10T15:46:46;17.10;99.90
2100;DHT22;1055;48.854;9.302;2023-05-10T15:49:11;17.00;99.90
2100;DHT22;1055;48.854;9.302;2023-05-10T15:51:37;17.10;99.90
2100;DHT22;1055;48.854;9.302;2023-05-10T15:54:03;17.10;99.90
2100;DHT22;1055;48.854;9.302;2023-05-10T15:56:31;17.20;99.90
2100;DHT22;1055;48.854;9.302;2023-05-10T15:58:58;17.20;99.90
2100;DHT22;1055;48.854;9.302;2023-05-10T16:01:23;17.40;99.90
2100;DHT22;1055;48.854;9.302;2023-05-10T16:03:49;17.50;99.90
2100;DHT22;1055;48.854;9.302;2023-05-10T16:06:15;17.20;99.90
2100;DHT22;1055;48.854;9.302;2023-05-10T16:08:41;17.10;99.90
2100;DHT22;1055;48.854;9.302;2023-05-10T16:11:07;16.80;99.90
2100;DHT22;1055;48.854;9.302;2023-05-10T16:13:33;16.90;99.90
2100;DHT22;1055;48.854;9.302;2023-05-10T16:15:59;16.90;99.90
2100;DHT22;1055;48.854;9.302;2023-05-10T16:18:25;17.10;99.90
2100;DHT22;1055;48.854;9.302;2023-05-10T16:20:52;16.90;99.90
2100;DHT22;1055;48.854;9.302;2023-05-10T16:23:18;17.00;99.90
2100;DHT22;1055;48.854;9.302;2023-05-10T16:25:44;17.10;99.90
2100;DHT22;1055;48.854;9.302;2023-05-10T16:28:09;17.00;99.90
2100;DHT22;1055;48.854;9.302;2023-05-10T16:30:36;17.20;99.90
2100;DHT22;1055;48.854;9.302;2023-05-10T16:33:02;17.00;99.90
2100;DHT22;1055;48.854;9.302;2023-05-10T16:35:28;16.60;99.90
2100;DHT22;1055;48.854;9.302;2023-05-10T16:37:54;16.80;99.90